Crewe, Virginia
Current Conditions -  °F | °C
As of 3:40 AM on Friday 31 Oct 2014 (Local Time) from KW81 Reporting Station
Overcast Overcast  
Wind Chill: 41°   Ceiling: 4700
Heat Index: 41°   Visibility: 10mi
Dew Point: 38°   Wind: 3mph
Humidity: 88%   Direction: 330°NNW
Pressure: 30"   Gusts: NA
Location:  37.17°N, 78.12°W
Report Text: KW81 310740Z AUTO 33003KT 10SM OVC047 05/03 A3000 RMK AO1 T00520034
Loading
Personal Weather Stations






























Interactive Weather Map
Tropical Storm Tracking
New forecast layout! Learn more

10-Day Weather Forecast

Advertisements
Track Severe Weather on mobile